sensor_id;sensor_type;location;lat;lon;timestamp;P1;durP1;ratioP1;P2;durP2;ratioP2
7110;SDS011;3597;42.650;23.386;2023-08-31T00:01:39;1.60;;;1.60;;
7110;SDS011;3597;42.650;23.386;2023-08-31T00:04:05;1.70;;;1.70;;
7110;SDS011;3597;42.650;23.386;2023-08-31T00:06:33;1.83;;;1.83;;
7110;SDS011;3597;42.650;23.386;2023-08-31T00:08:59;1.70;;;1.70;;
7110;SDS011;3597;42.650;23.386;2023-08-31T00:11:24;1.90;;;1.90;;
7110;SDS011;3597;42.650;23.386;2023-08-31T00:13:51;1.80;;;1.80;;
7110;SDS011;3597;42.650;23.386;2023-08-31T00:16:17;1.83;;;1.83;;
7110;SDS011;3597;42.650;23.386;2023-08-31T00:18:42;1.70;;;1.70;;
7110;SDS011;3597;42.650;23.386;2023-08-31T00:21:10;1.80;;;1.80;;
7110;SDS011;3597;42.650;23.386;2023-08-31T00:23:35;1.70;;;1.70;;
7110;SDS011;3597;42.650;23.386;2023-08-31T00:26:02;1.70;;;1.70;;
7110;SDS011;3597;42.650;23.386;2023-08-31T00:28:28;2.00;;;2.00;;
7110;SDS011;3597;42.650;23.386;2023-08-31T00:30:53;1.90;;;1.90;;
7110;SDS011;3597;42.650;23.386;2023-08-31T00:33:19;2.30;;;2.20;;
7110;SDS011;3597;42.650;23.386;2023-08-31T00:35:44;1.70;;;1.70;;
7110;SDS011;3597;42.650;23.386;2023-08-31T00:38:11;1.90;;;1.90;;
7110;SDS011;3597;42.650;23.386;2023-08-31T00:40:40;2.40;;;2.20;;
7110;SDS011;3597;42.650;23.386;2023-08-31T00:43:09;2.23;;;2.23;;
7110;SDS011;3597;42.650;23.386;2023-08-31T00:45:35;3.30;;;3.30;;
7110;SDS011;3597;42.650;23.386;2023-08-31T00:48:01;4.37;;;4.37;;
7110;SDS011;3597;42.650;23.386;2023-08-31T00:50:26;3.23;;;3.13;;
7110;SDS011;3597;42.650;23.386;2023-08-31T00:52:51;3.17;;;3.17;;
7110;SDS011;3597;42.650;23.386;2023-08-31T00:55:17;2.70;;;2.70;;
7110;SDS011;3597;42.650;23.386;2023-08-31T00:57:43;3.07;;;3.00;;
7110;SDS011;3597;42.650;23.386;2023-08-31T01:00:09;2.70;;;2.70;;
7110;SDS011;3597;42.650;23.386;2023-08-31T01:05:33;2.70;;;2.70;;
7110;SDS011;3597;42.650;23.386;2023-08-31T01:13:33;2.67;;;2.67;;
7110;SDS011;3597;42.650;23.386;2023-08-31T01:16:00;2.63;;;2.60;;
7110;SDS011;3597;42.650;23.386;2023-08-31T01:18:29;2.20;;;2.20;;
7110;SDS011;3597;42.650;23.386;2023-08-31T01:21:09;2.30;;;2.30;;
7110;SDS011;3597;42.650;23.386;2023-08-31T01:23:56;1.80;;;1.80;;
7110;SDS011;3597;42.650;23.386;2023-08-31T01:26:23;1.60;;;1.60;;
7110;SDS011;3597;42.650;23.386;2023-08-31T01:28:50;1.70;;;1.70;;
7110;SDS011;3597;42.650;23.386;2023-08-31T01:31:16;2.00;;;2.00;;
7110;SDS011;3597;42.650;23.386;2023-08-31T01:33:41;2.07;;;2.03;;
7110;SDS011;3597;42.650;23.386;2023-08-31T01:36:08;1.90;;;1.90;;
7110;SDS011;3597;42.650;23.386;2023-08-31T01:38:39;1.70;;;1.70;;
7110;SDS011;3597;42.650;23.386;2023-08-31T01:41:10;1.50;;;1.50;;
7110;SDS011;3597;42.650;23.386;2023-08-31T01:43:40;1.80;;;1.77;;
7110;SDS011;3597;42.650;23.386;2023-08-31T01:46:06;1.50;;;1.50;;
7110;SDS011;3597;42.650;23.386;2023-08-31T01:48:37;1.67;;;1.67;;
7110;SDS011;3597;42.650;23.386;2023-08-31T01:51:03;1.57;;;1.57;;
7110;SDS011;3597;42.650;23.386;2023-08-31T01:53:28;1.70;;;1.70;;
7110;SDS011;3597;42.650;23.386;2023-08-31T01:55:54;1.90;;;1.80;;
7110;SDS011;3597;42.650;23.386;2023-08-31T01:58:19;1.70;;;1.60;;
7110;SDS011;3597;42.650;23.386;2023-08-31T02:00:44;1.50;;;1.50;;
7110;SDS011;3597;42.650;23.386;2023-08-31T02:03:10;3.80;;;1.60;;
7110;SDS011;3597;42.650;23.386;2023-08-31T02:05:36;1.70;;;1.60;;
7110;SDS011;3597;42.650;23.386;2023-08-31T02:08:01;1.50;;;1.40;;
7110;SDS011;3597;42.650;23.386;2023-08-31T02:10:26;1.60;;;1.60;;
7110;SDS011;3597;42.650;23.386;2023-08-31T02:12:54;1.60;;;1.60;;
7110;SDS011;3597;42.650;23.386;2023-08-31T02:15:19;1.70;;;1.60;;
7110;SDS011;3597;42.650;23.386;2023-08-31T02:17:45;1.50;;;1.50;;
7110;SDS011;3597;42.650;23.386;2023-08-31T02:20:10;1.40;;;1.40;;
7110;SDS011;3597;42.650;23.386;2023-08-31T02:22:36;1.47;;;1.47;;
7110;SDS011;3597;42.650;23.386;2023-08-31T02:25:02;1.70;;;1.60;;
7110;SDS011;3597;42.650;23.386;2023-08-31T02:27:27;1.50;;;1.50;;
7110;SDS011;3597;42.650;23.386;2023-08-31T02:29:53;1.67;;;1.57;;
7110;SDS011;3597;42.650;23.386;2023-08-31T02:32:18;1.50;;;1.50;;
7110;SDS011;3597;42.650;23.386;2023-08-31T02:34:44;1.57;;;1.57;;
7110;SDS011;3597;42.650;23.386;2023-08-31T02:37:09;1.40;;;1.40;;
7110;SDS011;3597;42.650;23.386;2023-08-31T02:39:35;1.43;;;1.43;;
7110;SDS011;3597;42.650;23.386;2023-08-31T02:42:00;1.47;;;1.47;;
7110;SDS011;3597;42.650;23.386;2023-08-31T02:44:26;1.40;;;1.40;;
7110;SDS011;3597;42.650;23.386;2023-08-31T02:46:51;1.40;;;1.40;;
7110;SDS011;3597;42.650;23.386;2023-08-31T02:49:17;2.83;;;2.03;;
7110;SDS011;3597;42.650;23.386;2023-08-31T02:51:42;1.60;;;1.50;;
7110;SDS011;3597;42.650;23.386;2023-08-31T02:54:07;1.57;;;1.57;;
7110;SDS011;3597;42.650;23.386;2023-08-31T02:56:33;1.50;;;1.50;;
7110;SDS011;3597;42.650;23.386;2023-08-31T02:58:58;1.50;;;1.50;;
7110;SDS011;3597;42.650;23.386;2023-08-31T03:01:23;1.80;;;1.70;;
7110;SDS011;3597;42.650;23.386;2023-08-31T03:03:49;1.60;;;1.60;;
7110;SDS011;3597;42.650;23.386;2023-08-31T03:06:15;1.60;;;1.60;;
7110;SDS011;3597;42.650;23.386;2023-08-31T03:08:40;1.63;;;1.63;;
7110;SDS011;3597;42.650;23.386;2023-08-31T03:11:05;1.80;;;1.80;;
7110;SDS011;3597;42.650;23.386;2023-08-31T03:13:31;1.60;;;1.60;;
7110;SDS011;3597;42.650;23.386;2023-08-31T03:15:57;1.60;;;1.60;;
7110;SDS011;3597;42.650;23.386;2023-08-31T03:18:23;1.57;;;1.57;;
7110;SDS011;3597;42.650;23.386;2023-08-31T03:20:48;1.87;;;1.80;;
7110;SDS011;3597;42.650;23.386;2023-08-31T03:23:14;1.60;;;1.60;;
7110;SDS011;3597;42.650;23.386;2023-08-31T03:25:39;1.70;;;1.70;;
7110;SDS011;3597;42.650;23.386;2023-08-31T03:28:05;1.60;;;1.60;;
7110;SDS011;3597;42.650;23.386;2023-08-31T03:30:30;1.70;;;1.70;;
7110;SDS011;3597;42.650;23.386;2023-08-31T03:32:55;1.70;;;1.70;;
7110;SDS011;3597;42.650;23.386;2023-08-31T03:35:21;1.70;;;1.70;;
7110;SDS011;3597;42.650;23.386;2023-08-31T03:37:51;1.80;;;1.80;;
7110;SDS011;3597;42.650;23.386;2023-08-31T03:40:17;1.80;;;1.73;;
7110;SDS011;3597;42.650;23.386;2023-08-31T03:42:42;2.50;;;2.40;;
7110;SDS011;3597;42.650;23.386;2023-08-31T03:45:08;1.83;;;1.83;;
7110;SDS011;3597;42.650;23.386;2023-08-31T03:47:33;1.80;;;1.80;;
7110;SDS011;3597;42.650;23.386;2023-08-31T03:49:58;1.60;;;1.60;;
7110;SDS011;3597;42.650;23.386;2023-08-31T03:52:24;1.80;;;1.80;;
7110;SDS011;3597;42.650;23.386;2023-08-31T03:54:51;2.37;;;1.77;;
7110;SDS011;3597;42.650;23.386;2023-08-31T03:57:17;1.80;;;1.70;;
7110;SDS011;3597;42.650;23.386;2023-08-31T03:59:43;1.70;;;1.70;;
7110;SDS011;3597;42.650;23.386;2023-08-31T04:02:08;1.97;;;1.63;;
7110;SDS011;3597;42.650;23.386;2023-08-31T04:04:33;1.60;;;1.60;;
7110;SDS011;3597;42.650;23.386;2023-08-31T04:06:59;1.60;;;1.60;;
7110;SDS011;3597;42.650;23.386;2023-08-31T04:09:25;1.50;;;1.50;;
7110;SDS011;3597;42.650;23.386;2023-08-31T04:11:50;1.60;;;1.60;;
7110;SDS011;3597;42.650;23.386;2023-08-31T04:14:15;3.60;;;2.00;;
7110;SDS011;3597;42.650;23.386;2023-08-31T04:16:43;1.80;;;1.70;;
7110;SDS011;3597;42.650;23.386;2023-08-31T04:19:08;1.67;;;1.67;;
7110;SDS011;3597;42.650;23.386;2023-08-31T04:21:34;1.70;;;1.70;;
7110;SDS011;3597;42.650;23.386;2023-08-31T04:23:59;2.03;;;1.90;;
7110;SDS011;3597;42.650;23.386;2023-08-31T04:26:25;1.90;;;1.90;;
7110;SDS011;3597;42.650;23.386;2023-08-31T04:28:50;2.40;;;1.90;;
7110;SDS011;3597;42.650;23.386;2023-08-31T04:31:16;1.60;;;1.60;;
7110;SDS011;3597;42.650;23.386;2023-08-31T04:33:41;1.80;;;1.70;;
7110;SDS011;3597;42.650;23.386;2023-08-31T04:36:06;1.60;;;1.60;;
7110;SDS011;3597;42.650;23.386;2023-08-31T04:38:33;1.70;;;1.70;;
7110;SDS011;3597;42.650;23.386;2023-08-31T04:40:59;1.70;;;1.70;;
7110;SDS011;3597;42.650;23.386;2023-08-31T04:43:25;1.90;;;1.90;;
7110;SDS011;3597;42.650;23.386;2023-08-31T04:45:51;2.00;;;2.00;;
7110;SDS011;3597;42.650;23.386;2023-08-31T04:48:17;2.30;;;2.20;;
7110;SDS011;3597;42.650;23.386;2023-08-31T04:50:42;2.30;;;2.30;;
7110;SDS011;3597;42.650;23.386;2023-08-31T04:53:07;2.30;;;2.20;;
7110;SDS011;3597;42.650;23.386;2023-08-31T04:55:33;1.70;;;1.60;;
7110;SDS011;3597;42.650;23.386;2023-08-31T04:57:58;2.60;;;1.60;;
7110;SDS011;3597;42.650;23.386;2023-08-31T05:00:23;1.70;;;1.70;;
7110;SDS011;3597;42.650;23.386;2023-08-31T05:02:49;1.50;;;1.50;;
7110;SDS011;3597;42.650;23.386;2023-08-31T05:05:14;1.70;;;1.70;;
7110;SDS011;3597;42.650;23.386;2023-08-31T05:07:39;1.53;;;1.53;;
7110;SDS011;3597;42.650;23.386;2023-08-31T05:10:05;1.43;;;1.43;;
7110;SDS011;3597;42.650;23.386;2023-08-31T05:12:31;1.67;;;1.67;;
7110;SDS011;3597;42.650;23.386;2023-08-31T05:14:57;1.87;;;1.87;;
7110;SDS011;3597;42.650;23.386;2023-08-31T05:17:22;1.50;;;1.50;;
7110;SDS011;3597;42.650;23.386;2023-08-31T05:19:47;2.00;;;1.90;;
7110;SDS011;3597;42.650;23.386;2023-08-31T05:22:13;1.83;;;1.80;;
7110;SDS011;3597;42.650;23.386;2023-08-31T05:24:39;2.00;;;1.90;;
7110;SDS011;3597;42.650;23.386;2023-08-31T05:27:04;2.30;;;2.20;;
7110;SDS011;3597;42.650;23.386;2023-08-31T05:29:29;1.80;;;1.80;;
7110;SDS011;3597;42.650;23.386;2023-08-31T05:31:55;2.40;;;1.50;;
7110;SDS011;3597;42.650;23.386;2023-08-31T05:34:21;1.63;;;1.63;;
7110;SDS011;3597;42.650;23.386;2023-08-31T05:36:47;1.80;;;1.80;;
7110;SDS011;3597;42.650;23.386;2023-08-31T05:39:12;2.53;;;2.42;;
7110;SDS011;3597;42.650;23.386;2023-08-31T05:41:41;2.38;;;2.28;;
7110;SDS011;3597;42.650;23.386;2023-08-31T05:44:06;1.83;;;1.83;;
7110;SDS011;3597;42.650;23.386;2023-08-31T05:46:32;1.98;;;1.80;;
7110;SDS011;3597;42.650;23.386;2023-08-31T05:48:58;1.70;;;1.60;;
7110;SDS011;3597;42.650;23.386;2023-08-31T05:51:23;1.95;;;1.85;;
7110;SDS011;3597;42.650;23.386;2023-08-31T05:53:49;2.53;;;2.33;;
7110;SDS011;3597;42.650;23.386;2023-08-31T05:56:14;2.65;;;2.03;;
7110;SDS011;3597;42.650;23.386;2023-08-31T05:58:39;2.47;;;2.25;;
7110;SDS011;3597;42.650;23.386;2023-08-31T06:01:05;2.78;;;2.67;;
7110;SDS011;3597;42.650;23.386;2023-08-31T06:03:31;2.20;;;2.05;;
7110;SDS011;3597;42.650;23.386;2023-08-31T06:05:57;2.42;;;2.20;;
7110;SDS011;3597;42.650;23.386;2023-08-31T06:08:22;2.22;;;2.13;;
7110;SDS011;3597;42.650;23.386;2023-08-31T06:10:48;1.85;;;1.85;;
7110;SDS011;3597;42.650;23.386;2023-08-31T06:13:14;2.35;;;2.15;;
7110;SDS011;3597;42.650;23.386;2023-08-31T06:15:39;3.33;;;2.60;;
7110;SDS011;3597;42.650;23.386;2023-08-31T06:18:05;2.45;;;2.17;;
7110;SDS011;3597;42.650;23.386;2023-08-31T06:20:31;2.30;;;2.20;;
7110;SDS011;3597;42.650;23.386;2023-08-31T06:22:56;2.53;;;2.42;;
7110;SDS011;3597;42.650;23.386;2023-08-31T06:25:22;2.58;;;2.15;;
7110;SDS011;3597;42.650;23.386;2023-08-31T06:27:47;2.60;;;2.40;;
7110;SDS011;3597;42.650;23.386;2023-08-31T06:30:13;2.47;;;2.28;;
7110;SDS011;3597;42.650;23.386;2023-08-31T06:32:42;1.70;;;1.70;;
7110;SDS011;3597;42.650;23.386;2023-08-31T06:35:09;2.35;;;2.03;;
7110;SDS011;3597;42.650;23.386;2023-08-31T06:37:35;3.42;;;3.20;;
7110;SDS011;3597;42.650;23.386;2023-08-31T06:40:00;1.83;;;1.83;;
7110;SDS011;3597;42.650;23.386;2023-08-31T06:42:25;2.00;;;2.00;;
7110;SDS011;3597;42.650;23.386;2023-08-31T06:44:51;1.85;;;1.85;;
7110;SDS011;3597;42.650;23.386;2023-08-31T06:47:16;1.50;;;1.50;;
7110;SDS011;3597;42.650;23.386;2023-08-31T06:49:42;1.88;;;1.77;;
7110;SDS011;3597;42.650;23.386;2023-08-31T06:52:08;1.85;;;1.75;;
7110;SDS011;3597;42.650;23.386;2023-08-31T06:54:33;2.03;;;2.03;;
7110;SDS011;3597;42.650;23.386;2023-08-31T06:56:59;4.07;;;3.88;;
7110;SDS011;3597;42.650;23.386;2023-08-31T06:59:24;3.83;;;3.70;;
7110;SDS011;3597;42.650;23.386;2023-08-31T07:01:50;3.35;;;3.25;;
7110;SDS011;3597;42.650;23.386;2023-08-31T07:04:15;4.05;;;2.80;;
7110;SDS011;3597;42.650;23.386;2023-08-31T07:06:41;2.90;;;2.80;;
7110;SDS011;3597;42.650;23.386;2023-08-31T07:09:06;2.28;;;2.28;;
7110;SDS011;3597;42.650;23.386;2023-08-31T07:11:33;3.45;;;3.35;;
7110;SDS011;3597;42.650;23.386;2023-08-31T07:13:58;2.80;;;2.60;;
7110;SDS011;3597;42.650;23.386;2023-08-31T07:16:24;3.05;;;2.95;;
7110;SDS011;3597;42.650;23.386;2023-08-31T07:18:49;2.20;;;2.20;;
7110;SDS011;3597;42.650;23.386;2023-08-31T07:21:15;2.40;;;2.30;;
7110;SDS011;3597;42.650;23.386;2023-08-31T07:23:40;2.22;;;2.22;;
7110;SDS011;3597;42.650;23.386;2023-08-31T07:26:06;2.83;;;2.72;;
7110;SDS011;3597;42.650;23.386;2023-08-31T07:28:31;2.78;;;2.67;;
7110;SDS011;3597;42.650;23.386;2023-08-31T07:31:03;2.40;;;2.30;;
7110;SDS011;3597;42.650;23.386;2023-08-31T07:33:31;2.03;;;2.03;;
7110;SDS011;3597;42.650;23.386;2023-08-31T07:36:01;1.80;;;1.75;;
7110;SDS011;3597;42.650;23.386;2023-08-31T07:38:28;2.50;;;2.40;;
7110;SDS011;3597;42.650;23.386;2023-08-31T07:40:55;1.52;;;1.52;;
7110;SDS011;3597;42.650;23.386;2023-08-31T07:43:20;2.00;;;1.90;;
7110;SDS011;3597;42.650;23.386;2023-08-31T07:45:45;2.53;;;2.35;;
7110;SDS011;3597;42.650;23.386;2023-08-31T07:48:11;2.00;;;1.90;;
7110;SDS011;3597;42.650;23.386;2023-08-31T07:50:36;2.00;;;1.90;;
7110;SDS011;3597;42.650;23.386;2023-08-31T07:53:01;1.80;;;1.70;;
7110;SDS011;3597;42.650;23.386;2023-08-31T07:55:28;2.28;;;2.17;;
7110;SDS011;3597;42.650;23.386;2023-08-31T07:57:53;1.92;;;1.83;;
7110;SDS011;3597;42.650;23.386;2023-08-31T08:00:19;2.33;;;2.10;;
7110;SDS011;3597;42.650;23.386;2023-08-31T08:02:45;1.92;;;1.92;;
7110;SDS011;3597;42.650;23.386;2023-08-31T08:05:11;2.22;;;2.22;;
7110;SDS011;3597;42.650;23.386;2023-08-31T08:07:36;2.80;;;2.20;;
7110;SDS011;3597;42.650;23.386;2023-08-31T08:10:02;2.42;;;2.30;;
7110;SDS011;3597;42.650;23.386;2023-08-31T08:12:27;2.40;;;2.40;;
7110;SDS011;3597;42.650;23.386;2023-08-31T08:14:53;3.42;;;3.20;;
7110;SDS011;3597;42.650;23.386;2023-08-31T08:17:18;4.20;;;3.97;;
7110;SDS011;3597;42.650;23.386;2023-08-31T08:19:43;7.53;;;2.63;;
7110;SDS011;3597;42.650;23.386;2023-08-31T08:22:09;2.70;;;2.38;;
7110;SDS011;3597;42.650;23.386;2023-08-31T08:24:34;2.17;;;2.17;;
7110;SDS011;3597;42.650;23.386;2023-08-31T08:27:00;2.08;;;2.08;;
7110;SDS011;3597;42.650;23.386;2023-08-31T08:29:25;1.98;;;1.90;;
7110;SDS011;3597;42.650;23.386;2023-08-31T08:31:51;2.10;;;2.00;;
7110;SDS011;3597;42.650;23.386;2023-08-31T08:34:16;2.60;;;2.50;;
7110;SDS011;3597;42.650;23.386;2023-08-31T08:36:41;2.30;;;2.30;;
7110;SDS011;3597;42.650;23.386;2023-08-31T08:39:07;2.35;;;2.25;;
7110;SDS011;3597;42.650;23.386;2023-08-31T08:41:32;3.90;;;2.63;;
7110;SDS011;3597;42.650;23.386;2023-08-31T08:44:01;2.33;;;2.22;;
7110;SDS011;3597;42.650;23.386;2023-08-31T08:46:28;3.22;;;3.13;;
7110;SDS011;3597;42.650;23.386;2023-08-31T08:48:55;2.60;;;2.60;;
7110;SDS011;3597;42.650;23.386;2023-08-31T08:51:21;2.90;;;2.90;;
7110;SDS011;3597;42.650;23.386;2023-08-31T08:53:46;3.17;;;3.00;;
7110;SDS011;3597;42.650;23.386;2023-08-31T08:56:12;2.47;;;2.47;;
7110;SDS011;3597;42.650;23.386;2023-08-31T08:58:38;2.47;;;2.47;;
7110;SDS011;3597;42.650;23.386;2023-08-31T09:01:03;2.22;;;2.22;;
7110;SDS011;3597;42.650;23.386;2023-08-31T09:03:29;2.05;;;2.05;;
7110;SDS011;3597;42.650;23.386;2023-08-31T09:05:54;2.10;;;2.10;;
7110;SDS011;3597;42.650;23.386;2023-08-31T09:08:26;2.25;;;2.25;;
7110;SDS011;3597;42.650;23.386;2023-08-31T09:10:53;2.15;;;2.15;;
7110;SDS011;3597;42.650;23.386;2023-08-31T09:13:21;2.88;;;2.85;;
7110;SDS011;3597;42.650;23.386;2023-08-31T09:15:52;2.10;;;2.10;;
7110;SDS011;3597;42.650;23.386;2023-08-31T09:18:24;2.20;;;2.10;;
7110;SDS011;3597;42.650;23.386;2023-08-31T09:20:50;2.20;;;2.20;;
7110;SDS011;3597;42.650;23.386;2023-08-31T09:23:15;1.88;;;1.88;;
7110;SDS011;3597;42.650;23.386;2023-08-31T09:25:44;2.17;;;2.13;;
7110;SDS011;3597;42.650;23.386;2023-08-31T09:28:16;2.58;;;2.47;;
7110;SDS011;3597;42.650;23.386;2023-08-31T09:30:44;1.95;;;1.95;;
7110;SDS011;3597;42.650;23.386;2023-08-31T09:33:13;2.05;;;2.05;;
7110;SDS011;3597;42.650;23.386;2023-08-31T09:35:42;2.40;;;2.30;;
7110;SDS011;3597;42.650;23.386;2023-08-31T09:38:31;1.90;;;1.90;;
7110;SDS011;3597;42.650;23.386;2023-08-31T09:41:03;1.77;;;1.77;;
7110;SDS011;3597;42.650;23.386;2023-08-31T09:43:30;1.95;;;1.95;;
7110;SDS011;3597;42.650;23.386;2023-08-31T09:45:55;1.80;;;1.80;;
7110;SDS011;3597;42.650;23.386;2023-08-31T09:48:21;2.40;;;2.30;;
7110;SDS011;3597;42.650;23.386;2023-08-31T09:50:47;1.75;;;1.75;;
7110;SDS011;3597;42.650;23.386;2023-08-31T09:53:14;2.20;;;2.20;;
7110;SDS011;3597;42.650;23.386;2023-08-31T09:55:41;2.00;;;2.00;;
7110;SDS011;3597;42.650;23.386;2023-08-31T09:58:08;2.05;;;2.05;;
7110;SDS011;3597;42.650;23.386;2023-08-31T10:00:35;2.10;;;2.10;;
7110;SDS011;3597;42.650;23.386;2023-08-31T10:03:02;2.08;;;2.08;;
7110;SDS011;3597;42.650;23.386;2023-08-31T10:05:29;2.10;;;1.83;;
7110;SDS011;3597;42.650;23.386;2023-08-31T10:07:54;2.28;;;2.28;;
7110;SDS011;3597;42.650;23.386;2023-08-31T10:10:20;2.70;;;2.60;;
7110;SDS011;3597;42.650;23.386;2023-08-31T10:12:48;2.10;;;2.00;;
7110;SDS011;3597;42.650;23.386;2023-08-31T10:15:14;2.00;;;2.00;;
7110;SDS011;3597;42.650;23.386;2023-08-31T10:17:40;1.92;;;1.92;;
7110;SDS011;3597;42.650;23.386;2023-08-31T10:20:07;2.08;;;1.98;;
7110;SDS011;3597;42.650;23.386;2023-08-31T10:22:33;1.92;;;1.92;;
7110;SDS011;3597;42.650;23.386;2023-08-31T10:25:02;3.10;;;2.22;;
7110;SDS011;3597;42.650;23.386;2023-08-31T10:27:41;2.15;;;2.15;;
7110;SDS011;3597;42.650;23.386;2023-08-31T10:38:33;2.50;;;2.50;;
7110;SDS011;3597;42.650;23.386;2023-08-31T10:44:18;2.30;;;2.30;;
7110;SDS011;3597;42.650;23.386;2023-08-31T10:51:25;2.60;;;2.60;;
7110;SDS011;3597;42.650;23.386;2023-08-31T10:53:52;2.58;;;2.47;;
7110;SDS011;3597;42.650;23.386;2023-08-31T10:56:20;2.42;;;2.42;;
7110;SDS011;3597;42.650;23.386;2023-08-31T10:58:55;2.40;;;2.28;;
7110;SDS011;3597;42.650;23.386;2023-08-31T11:04:17;2.05;;;2.05;;
7110;SDS011;3597;42.650;23.386;2023-08-31T11:06:42;2.88;;;2.00;;
7110;SDS011;3597;42.650;23.386;2023-08-31T11:09:17;2.15;;;2.13;;
7110;SDS011;3597;42.650;23.386;2023-08-31T11:11:43;1.75;;;1.75;;
7110;SDS011;3597;42.650;23.386;2023-08-31T11:14:09;1.85;;;1.85;;
7110;SDS011;3597;42.650;23.386;2023-08-31T11:16:37;2.10;;;2.10;;
7110;SDS011;3597;42.650;23.386;2023-08-31T11:19:03;2.00;;;2.00;;
7110;SDS011;3597;42.650;23.386;2023-08-31T11:21:29;2.45;;;2.35;;
7110;SDS011;3597;42.650;23.386;2023-08-31T11:23:56;1.95;;;1.95;;
7110;SDS011;3597;42.650;23.386;2023-08-31T11:26:23;2.10;;;2.10;;
7110;SDS011;3597;42.650;23.386;2023-08-31T11:28:50;2.28;;;2.28;;
7110;SDS011;3597;42.650;23.386;2023-08-31T11:31:22;2.15;;;2.15;;
7110;SDS011;3597;42.650;23.386;2023-08-31T11:33:48;2.08;;;1.95;;
7110;SDS011;3597;42.650;23.386;2023-08-31T11:36:14;2.00;;;2.00;;
7110;SDS011;3597;42.650;23.386;2023-08-31T11:38:42;2.22;;;2.22;;
7110;SDS011;3597;42.650;23.386;2023-08-31T11:41:08;1.83;;;1.75;;
7110;SDS011;3597;42.650;23.386;2023-08-31T11:43:33;1.90;;;1.90;;
7110;SDS011;3597;42.650;23.386;2023-08-31T11:45:59;1.58;;;1.58;;
7110;SDS011;3597;42.650;23.386;2023-08-31T11:48:24;1.80;;;1.80;;
7110;SDS011;3597;42.650;23.386;2023-08-31T11:50:50;1.67;;;1.67;;
7110;SDS011;3597;42.650;23.386;2023-08-31T11:53:18;1.83;;;1.83;;
7110;SDS011;3597;42.650;23.386;2023-08-31T11:55:50;2.05;;;2.00;;
7110;SDS011;3597;42.650;23.386;2023-08-31T11:58:16;2.05;;;1.95;;
7110;SDS011;3597;42.650;23.386;2023-08-31T12:00:45;2.15;;;1.98;;
7110;SDS011;3597;42.650;23.386;2023-08-31T12:03:12;1.83;;;1.83;;
7110;SDS011;3597;42.650;23.386;2023-08-31T12:05:47;1.80;;;1.80;;
7110;SDS011;3597;42.650;23.386;2023-08-31T12:08:16;1.67;;;1.67;;
7110;SDS011;3597;42.650;23.386;2023-08-31T12:10:41;1.65;;;1.65;;
7110;SDS011;3597;42.650;23.386;2023-08-31T12:13:08;1.70;;;1.70;;
7110;SDS011;3597;42.650;23.386;2023-08-31T12:15:34;1.42;;;1.42;;
7110;SDS011;3597;42.650;23.386;2023-08-31T12:18:06;1.70;;;1.70;;
7110;SDS011;3597;42.650;23.386;2023-08-31T12:20:32;1.92;;;1.80;;
7110;SDS011;3597;42.650;23.386;2023-08-31T12:23:04;1.50;;;1.50;;
7110;SDS011;3597;42.650;23.386;2023-08-31T12:25:30;2.00;;;2.00;;
7110;SDS011;3597;42.650;23.386;2023-08-31T12:27:55;1.95;;;1.90;;
7110;SDS011;3597;42.650;23.386;2023-08-31T12:30:21;1.67;;;1.67;;
7110;SDS011;3597;42.650;23.386;2023-08-31T12:32:46;1.60;;;1.60;;
7110;SDS011;3597;42.650;23.386;2023-08-31T12:35:12;1.80;;;1.80;;
7110;SDS011;3597;42.650;23.386;2023-08-31T12:37:39;1.63;;;1.63;;
7110;SDS011;3597;42.650;23.386;2023-08-31T12:40:04;1.48;;;1.48;;
7110;SDS011;3597;42.650;23.386;2023-08-31T12:42:32;1.73;;;1.73;;
7110;SDS011;3597;42.650;23.386;2023-08-31T12:44:57;1.80;;;1.63;;
7110;SDS011;3597;42.650;23.386;2023-08-31T12:47:22;1.83;;;1.83;;
7110;SDS011;3597;42.650;23.386;2023-08-31T12:49:49;2.53;;;2.42;;
7110;SDS011;3597;42.650;23.386;2023-08-31T12:52:14;1.60;;;1.60;;
7110;SDS011;3597;42.650;23.386;2023-08-31T12:54:40;1.83;;;1.83;;
7110;SDS011;3597;42.650;23.386;2023-08-31T12:57:05;2.30;;;2.30;;
7110;SDS011;3597;42.650;23.386;2023-08-31T12:59:31;2.03;;;2.03;;
7110;SDS011;3597;42.650;23.386;2023-08-31T13:01:56;2.17;;;2.17;;
7110;SDS011;3597;42.650;23.386;2023-08-31T13:04:22;2.20;;;2.10;;
7110;SDS011;3597;42.650;23.386;2023-08-31T13:06:47;1.80;;;1.80;;
7110;SDS011;3597;42.650;23.386;2023-08-31T13:09:13;2.30;;;2.20;;
7110;SDS011;3597;42.650;23.386;2023-08-31T13:11:38;1.88;;;1.88;;
7110;SDS011;3597;42.650;23.386;2023-08-31T13:14:04;2.00;;;2.00;;
7110;SDS011;3597;42.650;23.386;2023-08-31T13:16:30;2.58;;;2.47;;
7110;SDS011;3597;42.650;23.386;2023-08-31T13:18:55;2.05;;;2.05;;
7110;SDS011;3597;42.650;23.386;2023-08-31T13:21:20;1.90;;;1.90;;
7110;SDS011;3597;42.650;23.386;2023-08-31T13:23:46;1.63;;;1.63;;
7110;SDS011;3597;42.650;23.386;2023-08-31T13:26:11;2.00;;;2.00;;
7110;SDS011;3597;42.650;23.386;2023-08-31T13:28:37;1.98;;;1.98;;
7110;SDS011;3597;42.650;23.386;2023-08-31T13:31:02;2.10;;;2.10;;
7110;SDS011;3597;42.650;23.386;2023-08-31T13:33:28;2.00;;;2.00;;
7110;SDS011;3597;42.650;23.386;2023-08-31T13:35:56;2.17;;;2.08;;
7110;SDS011;3597;42.650;23.386;2023-08-31T13:38:22;2.22;;;2.22;;
7110;SDS011;3597;42.650;23.386;2023-08-31T13:40:48;2.60;;;2.60;;
7110;SDS011;3597;42.650;23.386;2023-08-31T13:43:13;1.90;;;1.90;;
7110;SDS011;3597;42.650;23.386;2023-08-31T13:45:38;4.05;;;3.95;;
7110;SDS011;3597;42.650;23.386;2023-08-31T13:48:04;2.40;;;2.30;;
7110;SDS011;3597;42.650;23.386;2023-08-31T13:50:29;1.50;;;1.50;;
7110;SDS011;3597;42.650;23.386;2023-08-31T13:52:55;1.90;;;1.90;;
7110;SDS011;3597;42.650;23.386;2023-08-31T13:55:20;1.95;;;1.95;;
7110;SDS011;3597;42.650;23.386;2023-08-31T13:57:47;1.90;;;1.90;;
7110;SDS011;3597;42.650;23.386;2023-08-31T14:00:12;1.80;;;1.70;;
7110;SDS011;3597;42.650;23.386;2023-08-31T14:02:38;1.73;;;1.73;;
7110;SDS011;3597;42.650;23.386;2023-08-31T14:05:06;1.88;;;1.88;;
7110;SDS011;3597;42.650;23.386;2023-08-31T14:07:33;3.75;;;2.10;;
7110;SDS011;3597;42.650;23.386;2023-08-31T14:09:59;1.75;;;1.65;;
7110;SDS011;3597;42.650;23.386;2023-08-31T14:12:25;2.03;;;1.92;;
7110;SDS011;3597;42.650;23.386;2023-08-31T14:14:52;2.13;;;2.13;;
7110;SDS011;3597;42.650;23.386;2023-08-31T14:17:18;1.73;;;1.73;;
7110;SDS011;3597;42.650;23.386;2023-08-31T14:19:44;1.92;;;1.83;;
7110;SDS011;3597;42.650;23.386;2023-08-31T14:22:09;1.80;;;1.80;;
7110;SDS011;3597;42.650;23.386;2023-08-31T14:24:35;1.85;;;1.85;;
7110;SDS011;3597;42.650;23.386;2023-08-31T14:27:01;1.80;;;1.80;;
7110;SDS011;3597;42.650;23.386;2023-08-31T14:29:27;2.00;;;2.00;;
7110;SDS011;3597;42.650;23.386;2023-08-31T14:31:53;2.13;;;2.03;;
7110;SDS011;3597;42.650;23.386;2023-08-31T14:34:19;1.70;;;1.70;;
7110;SDS011;3597;42.650;23.386;2023-08-31T14:36:44;1.90;;;1.90;;
7110;SDS011;3597;42.650;23.386;2023-08-31T14:39:10;2.07;;;2.07;;
7110;SDS011;3597;42.650;23.386;2023-08-31T14:41:35;2.30;;;2.20;;
7110;SDS011;3597;42.650;23.386;2023-08-31T14:44:00;2.00;;;2.00;;
7110;SDS011;3597;42.650;23.386;2023-08-31T14:46:26;2.03;;;2.03;;
7110;SDS011;3597;42.650;23.386;2023-08-31T14:48:51;2.00;;;2.00;;
7110;SDS011;3597;42.650;23.386;2023-08-31T14:51:16;1.87;;;1.87;;
7110;SDS011;3597;42.650;23.386;2023-08-31T14:53:42;2.13;;;2.13;;
7110;SDS011;3597;42.650;23.386;2023-08-31T14:56:07;2.60;;;1.90;;
7110;SDS011;3597;42.650;23.386;2023-08-31T14:58:33;1.97;;;1.97;;
7110;SDS011;3597;42.650;23.386;2023-08-31T15:00:58;2.30;;;2.20;;
7110;SDS011;3597;42.650;23.386;2023-08-31T15:03:23;2.33;;;2.20;;
7110;SDS011;3597;42.650;23.386;2023-08-31T15:05:49;2.50;;;2.40;;
7110;SDS011;3597;42.650;23.386;2023-08-31T15:08:15;3.03;;;2.93;;
7110;SDS011;3597;42.650;23.386;2023-08-31T15:10:41;3.03;;;2.10;;
7110;SDS011;3597;42.650;23.386;2023-08-31T15:13:06;3.70;;;1.97;;
7110;SDS011;3597;42.650;23.386;2023-08-31T15:15:31;1.90;;;1.90;;
7110;SDS011;3597;42.650;23.386;2023-08-31T15:17:57;2.10;;;2.10;;
7110;SDS011;3597;42.650;23.386;2023-08-31T15:20:23;2.43;;;2.30;;
7110;SDS011;3597;42.650;23.386;2023-08-31T15:22:49;2.40;;;2.30;;